EDT,Max TemperatureF,Mean TemperatureF,Min TemperatureF,Max Dew PointF,MeanDew PointF,Min DewpointF,Max Humidity, Mean Humidity, Min Humidity, Max Sea Level PressureIn, Mean Sea Level PressureIn, Min Sea Level PressureIn, Max VisibilityMiles, Mean VisibilityMiles, Min VisibilityMiles, Max Wind SpeedMPH, Mean Wind SpeedMPH, Max Gust SpeedMPH,PrecipitationIn, CloudCover, Events, WindDirDegrees
2013-7-1,73,68,64,66,64,61,94,85,73,30.08,30.01,29.96,10,7,0,12,5,,0.00,8,,114
2013-7-2,78,73,68,70,66,63,88,79,65,30.22,30.15,30.08,10,9,4,15,7,16,0.00,6,,178
2013-7-3,80,74,68,68,65,64,88,75,61,30.28,30.25,30.21,10,10,4,12,5,17,0.00,5,,208
2013-7-4,84,75,66,70,66,63,88,74,58,30.30,30.26,30.21,10,8,0,12,3,16,0.00,4,,217
2013-7-5,87,76,66,70,66,63,88,69,49,30.26,30.22,30.15,10,9,1,10,4,18,0.00,2,,219
2013-7-6,86,76,66,68,66,63,88,69,51,30.21,30.17,30.11,10,10,9,14,4,22,0.00,2,,271
2013-7-7,89,78,66,70,65,61,88,68,46,30.14,30.07,30.00,10,9,1,12,3,20,0.00,1,Thunderstorm,253
2013-7-8,82,74,66,64,62,61,88,72,54,30.12,30.07,30.04,10,10,8,13,6,20,0.00,4,Thunderstorm,271
2013-7-9,84,74,64,66,63,59,88,74,48,30.14,30.10,30.06,10,8,0,14,3,21,0.01,3,,228
2013-7-10,80,73,66,70,65,63,88,76,61,30.06,29.95,29.87,10,7,1,13,5,20,0.00,5,,209
2013-7-11,80,72,64,64,58,54,83,64,42,30.02,29.94,29.85,10,10,10,14,7,20,0.00,1,,298
2013-7-12,75,68,62,61,57,52,78,65,53,30.19,30.11,30.02,10,10,5,17,6,21,0.00,2,,66
2013-7-13,73,66,60,66,61,55,88,82,73,30.36,30.28,30.18,10,9,2,15,8,18,0.00,7,,88
2013-7-14,84,76,69,68,66,64,88,71,55,30.40,30.36,30.31,10,8,1,12,3,16,0.00,5,,263
2013-7-15,89,78,68,70,65,63,88,65,43,30.33,30.30,30.25,10,10,7,14,4,22,0.00,2,,314
2013-7-16,89,78,66,66,61,59,78,59,38,30.32,30.27,30.24,10,10,10,16,6,22,0.00,0,,330
2013-7-17,91,78,64,66,63,59,88,60,38,30.30,30.23,30.15,10,10,7,9,3,,0.00,0,,286
2013-7-18,91,80,69,70,67,64,88,66,43,30.16,30.11,30.05,10,9,4,12,5,17,0.00,1,Thunderstorm,291
2013-7-19,91,80,68,72,67,63,88,67,46,30.06,29.97,29.87,10,9,3,15,4,24,0.00,1,,242
2013-7-20,87,78,69,66,64,61,78,65,43,29.93,29.86,29.81,10,8,4,15,5,26,0.00,2,,269
2013-7-21,84,72,60,63,58,55,83,61,37,30.04,29.99,29.93,10,10,8,9,3,21,0.00,2,,327
2013-7-22,80,73,66,66,61,57,88,70,51,30.04,29.98,29.87,10,8,1,13,5,23,0.00,4,Thunderstorm,100
2013-7-23,80,73,64,68,65,61,88,80,58,29.86,29.72,29.66,10,7,0,13,5,,0.00,6,Thunderstorm,248
2013-7-24,73,63,53,61,54,43,88,69,47,30.02,29.84,29.70,10,9,0,18,7,23,0.00,4,,314
2013-7-25,69,58,48,54,48,43,82,67,53,30.11,30.07,30.01,10,10,9,9,4,,0.00,3,,79
2013-7-26,80,66,51,55,52,46,88,63,39,30.11,30.08,30.05,10,10,5,9,3,16,0.00,1,,294
2013-7-27,80,66,53,61,55,48,88,66,44,30.10,30.06,30.00,10,10,0,16,4,20,0.00,1,,164
2013-7-28,71,66,60,64,59,55,88,81,68,30.02,30.00,29.97,10,8,1,14,6,16,0.00,8,Thunderstorm,137
2013-7-29,75,66,57,61,54,48,88,65,38,30.17,30.08,30.02,10,8,0,12,4,18,0.00,3,,287
2013-7-30,75,63,51,54,51,46,88,66,47,30.23,30.19,30.17,10,10,7,10,4,,0.00,2,,292
2013-7-31,77,64,51,57,53,46,88,66,47,30.21,30.16,30.08,10,10,1,9,3,,0.00,1,,192